sensor_id;sensor_type;location;lat;lon;timestamp;pressure;altitude;pressure_sealevel;temperature;humidity
53270;BME280;39159;45.634;9.420;2022-09-01T00:01:35;98626.91;;;20.67;98.86
53270;BME280;39159;45.634;9.420;2022-09-01T00:04:03;98624.56;;;20.66;99.41
53270;BME280;39159;45.634;9.420;2022-09-01T00:06:30;98629.31;;;20.65;100.00
53270;BME280;39159;45.634;9.420;2022-09-01T00:08:57;98630.09;;;20.66;100.00
53270;BME280;39159;45.634;9.420;2022-09-01T00:11:23;98624.56;;;20.66;100.00
53270;BME280;39159;45.634;9.420;2022-09-01T00:13:50;98625.38;;;20.70;100.00
53270;BME280;39159;45.634;9.420;2022-09-01T00:16:16;98621.78;;;20.69;100.00
53270;BME280;39159;45.634;9.420;2022-09-01T00:18:43;98620.63;;;20.70;100.00
53270;BME280;39159;45.634;9.420;2022-09-01T00:21:11;98619.03;;;20.69;100.00
53270;BME280;39159;45.634;9.420;2022-09-01T00:23:37;98620.22;;;20.68;100.00
53270;BME280;39159;45.634;9.420;2022-09-01T00:26:03;98637.63;;;20.69;100.00
53270;BME280;39159;45.634;9.420;2022-09-01T00:28:28;98639.25;;;20.70;100.00
53270;BME280;39159;45.634;9.420;2022-09-01T00:30:53;98638.84;;;20.72;100.00
53270;BME280;39159;45.634;9.420;2022-09-01T00:33:19;98641.63;;;20.72;100.00
53270;BME280;39159;45.634;9.420;2022-09-01T00:35:44;98648.34;;;20.70;100.00
53270;BME280;39159;45.634;9.420;2022-09-01T00:38:10;98646.38;;;20.71;100.00
53270;BME280;39159;45.634;9.420;2022-09-01T00:40:35;98645.97;;;20.69;100.00
53270;BME280;39159;45.634;9.420;2022-09-01T00:43:09;98645.97;;;20.69;100.00
53270;BME280;39159;45.634;9.420;2022-09-01T00:45:34;98640.78;;;20.67;100.00
53270;BME280;39159;45.634;9.420;2022-09-01T00:47:59;98639.22;;;20.66;100.00
53270;BME280;39159;45.634;9.420;2022-09-01T00:50:25;98636.81;;;20.65;100.00
53270;BME280;39159;45.634;9.420;2022-09-01T00:52:51;98630.47;;;20.64;100.00
53270;BME280;39159;45.634;9.420;2022-09-01T00:55:18;98638.78;;;20.64;100.00
53270;BME280;39159;45.634;9.420;2022-09-01T00:57:45;98636.78;;;20.61;100.00
53270;BME280;39159;45.634;9.420;2022-09-01T01:00:16;98635.09;;;20.53;100.00
53270;BME280;39159;45.634;9.420;2022-09-01T01:02:41;98641.06;;;20.55;100.00
53270;BME280;39159;45.634;9.420;2022-09-01T01:05:08;98656.47;;;20.53;100.00
53270;BME280;39159;45.634;9.420;2022-09-01T01:07:34;98655.28;;;20.54;100.00
53270;BME280;39159;45.634;9.420;2022-09-01T01:10:03;98662.41;;;20.51;100.00
53270;BME280;39159;45.634;9.420;2022-09-01T01:12:28;98658.84;;;20.50;100.00
53270;BME280;39159;45.634;9.420;2022-09-01T01:14:54;98657.63;;;20.48;100.00
53270;BME280;39159;45.634;9.420;2022-09-01T01:17:21;98656.81;;;20.47;100.00
53270;BME280;39159;45.634;9.420;2022-09-01T01:19:47;98659.22;;;20.49;100.00
53270;BME280;39159;45.634;9.420;2022-09-01T01:25:27;98666.88;;;20.59;100.00
53270;BME280;39159;45.634;9.420;2022-09-01T01:28:02;98660.53;;;20.59;100.00
53270;BME280;39159;45.634;9.420;2022-09-01T01:30:27;98664.13;;;20.63;100.00
53270;BME280;39159;45.634;9.420;2022-09-01T01:32:58;98660.19;;;20.67;100.00
53270;BME280;39159;45.634;9.420;2022-09-01T01:35:25;98659.00;;;20.65;100.00
53270;BME280;39159;45.634;9.420;2022-09-01T01:37:51;98654.13;;;20.55;100.00
53270;BME280;39159;45.634;9.420;2022-09-01T01:40:18;98650.53;;;20.50;100.00
53270;BME280;39159;45.634;9.420;2022-09-01T01:42:44;98650.47;;;20.47;100.00
53270;BME280;39159;45.634;9.420;2022-09-01T01:45:10;98640.59;;;20.46;100.00
53270;BME280;39159;45.634;9.420;2022-09-01T01:47:37;98648.50;;;20.47;100.00
53270;BME280;39159;45.634;9.420;2022-09-01T01:50:02;98644.16;;;20.46;100.00
53270;BME280;39159;45.634;9.420;2022-09-01T01:52:33;98641.38;;;20.46;100.00
53270;BME280;39159;45.634;9.420;2022-09-01T01:54:58;98645.72;;;20.44;100.00
53270;BME280;39159;45.634;9.420;2022-09-01T01:57:24;98642.56;;;20.45;100.00
53270;BME280;39159;45.634;9.420;2022-09-01T01:59:49;98631.47;;;20.45;100.00
53270;BME280;39159;45.634;9.420;2022-09-01T02:02:14;98638.97;;;20.45;100.00
53270;BME280;39159;45.634;9.420;2022-09-01T02:04:40;98641.38;;;20.46;100.00
53270;BME280;39159;45.634;9.420;2022-09-01T02:07:08;98642.16;;;20.47;100.00
53270;BME280;39159;45.634;9.420;2022-09-01T02:09:36;98638.22;;;20.48;100.00
53270;BME280;39159;45.634;9.420;2022-09-01T02:12:05;98635.47;;;20.48;100.00
53270;BME280;39159;45.634;9.420;2022-09-01T02:14:32;98630.69;;;20.48;100.00
53270;BME280;39159;45.634;9.420;2022-09-01T02:16:57;98637.81;;;20.49;100.00
53270;BME280;39159;45.634;9.420;2022-09-01T02:19:22;98635.88;;;20.50;100.00
53270;BME280;39159;45.634;9.420;2022-09-01T02:21:47;98627.16;;;20.52;100.00
53270;BME280;39159;45.634;9.420;2022-09-01T02:24:18;98627.56;;;20.50;100.00
53270;BME280;39159;45.634;9.420;2022-09-01T02:26:44;98631.06;;;20.47;100.00
53270;BME280;39159;45.634;9.420;2022-09-01T02:29:12;98630.34;;;20.50;100.00
53270;BME280;39159;45.634;9.420;2022-09-01T02:31:43;98624.78;;;20.50;100.00
53270;BME280;39159;45.634;9.420;2022-09-01T02:34:09;98625.16;;;20.48;100.00
53270;BME280;39159;45.634;9.420;2022-09-01T02:36:40;98618.38;;;20.42;100.00
53270;BME280;39159;45.634;9.420;2022-09-01T02:39:08;98621.03;;;20.32;100.00
53270;BME280;39159;45.634;9.420;2022-09-01T02:41:33;98625.53;;;20.06;100.00
53270;BME280;39159;45.634;9.420;2022-09-01T02:43:59;98622.38;;;20.07;100.00
53270;BME280;39159;45.634;9.420;2022-09-01T02:46:26;98622.72;;;20.02;100.00
53270;BME280;39159;45.634;9.420;2022-09-01T02:48:53;98624.28;;;20.00;100.00
53270;BME280;39159;45.634;9.420;2022-09-01T02:51:19;98615.13;;;19.96;100.00
53270;BME280;39159;45.634;9.420;2022-09-01T02:53:46;98616.25;;;19.91;100.00
53270;BME280;39159;45.634;9.420;2022-09-01T02:56:16;98614.25;;;19.88;100.00
53270;BME280;39159;45.634;9.420;2022-09-01T02:58:43;98604.03;;;19.92;100.00
53270;BME280;39159;45.634;9.420;2022-09-01T03:01:19;98606.38;;;19.90;100.00
53270;BME280;39159;45.634;9.420;2022-09-01T03:03:49;98612.66;;;19.87;100.00
53270;BME280;39159;45.634;9.420;2022-09-01T03:06:15;98605.03;;;19.77;100.00
53270;BME280;39159;45.634;9.420;2022-09-01T03:08:43;98604.56;;;19.71;100.00
53270;BME280;39159;45.634;9.420;2022-09-01T03:11:08;98598.56;;;19.65;100.00
53270;BME280;39159;45.634;9.420;2022-09-01T03:13:35;98601.97;;;19.55;100.00
53270;BME280;39159;45.634;9.420;2022-09-01T03:16:01;98600.34;;;19.51;100.00
53270;BME280;39159;45.634;9.420;2022-09-01T03:18:27;98608.16;;;19.45;100.00
53270;BME280;39159;45.634;9.420;2022-09-01T03:20:52;98605.03;;;19.46;100.00
53270;BME280;39159;45.634;9.420;2022-09-01T03:23:18;98601.00;;;19.40;100.00
53270;BME280;39159;45.634;9.420;2022-09-01T03:25:44;98604.19;;;19.42;100.00
53270;BME280;39159;45.634;9.420;2022-09-01T03:28:10;98606.94;;;19.42;100.00
53270;BME280;39159;45.634;9.420;2022-09-01T03:30:37;98606.53;;;19.40;100.00
53270;BME280;39159;45.634;9.420;2022-09-01T03:33:04;98607.72;;;19.43;100.00
53270;BME280;39159;45.634;9.420;2022-09-01T03:35:30;98610.09;;;19.41;100.00
53270;BME280;39159;45.634;9.420;2022-09-01T03:37:56;98612.44;;;19.39;100.00
53270;BME280;39159;45.634;9.420;2022-09-01T03:40:23;98603.38;;;19.42;100.00
53270;BME280;39159;45.634;9.420;2022-09-01T03:42:50;98609.69;;;19.39;100.00
53270;BME280;39159;45.634;9.420;2022-09-01T03:45:16;98604.50;;;19.37;100.00
53270;BME280;39159;45.634;9.420;2022-09-01T03:47:44;98614.38;;;19.35;100.00
53270;BME280;39159;45.634;9.420;2022-09-01T03:50:14;98612.75;;;19.34;100.00
53270;BME280;39159;45.634;9.420;2022-09-01T03:52:46;98609.53;;;19.28;100.00
53270;BME280;39159;45.634;9.420;2022-09-01T03:55:13;98611.88;;;19.26;100.00
53270;BME280;39159;45.634;9.420;2022-09-01T03:57:42;98611.88;;;19.26;100.00
53270;BME280;39159;45.634;9.420;2022-09-01T04:00:07;98605.91;;;19.24;100.00
53270;BME280;39159;45.634;9.420;2022-09-01T04:02:37;98599.59;;;19.23;100.00
53270;BME280;39159;45.634;9.420;2022-09-01T04:05:02;98596.50;;;19.29;100.00
53270;BME280;39159;45.634;9.420;2022-09-01T04:07:28;98596.22;;;19.37;100.00
53270;BME280;39159;45.634;9.420;2022-09-01T04:09:54;98594.28;;;19.41;100.00
53270;BME280;39159;45.634;9.420;2022-09-01T04:12:19;98593.97;;;19.46;100.00
53270;BME280;39159;45.634;9.420;2022-09-01T04:14:44;98590.91;;;19.55;100.00
53270;BME280;39159;45.634;9.420;2022-09-01T04:17:12;98587.06;;;19.63;100.00
53270;BME280;39159;45.634;9.420;2022-09-01T04:19:55;98591.03;;;19.66;100.00
53270;BME280;39159;45.634;9.420;2022-09-01T04:22:21;98587.06;;;19.63;100.00
53270;BME280;39159;45.634;9.420;2022-09-01T04:24:47;98587.47;;;19.65;100.00
53270;BME280;39159;45.634;9.420;2022-09-01T04:27:13;98586.28;;;19.66;100.00
53270;BME280;39159;45.634;9.420;2022-09-01T04:29:38;98589.06;;;19.66;100.00
53270;BME280;39159;45.634;9.420;2022-09-01T04:32:05;98583.53;;;19.66;100.00
53270;BME280;39159;45.634;9.420;2022-09-01T04:34:32;98582.38;;;19.67;100.00
53270;BME280;39159;45.634;9.420;2022-09-01T04:37:11;98585.13;;;19.67;100.00
53270;BME280;39159;45.634;9.420;2022-09-01T04:39:39;98579.66;;;19.71;100.00
53270;BME280;39159;45.634;9.420;2022-09-01T04:42:04;98586.28;;;19.66;100.00
53270;BME280;39159;45.634;9.420;2022-09-01T04:44:30;98581.53;;;19.67;100.00
53270;BME280;39159;45.634;9.420;2022-09-01T04:46:56;98582.72;;;19.66;100.00
53270;BME280;39159;45.634;9.420;2022-09-01T04:49:21;98579.16;;;19.65;100.00
53270;BME280;39159;45.634;9.420;2022-09-01T04:51:51;98587.06;;;19.63;100.00
53270;BME280;39159;45.634;9.420;2022-09-01T04:54:16;98581.94;;;19.65;100.00
53270;BME280;39159;45.634;9.420;2022-09-01T04:56:42;98587.91;;;19.67;100.00
53270;BME280;39159;45.634;9.420;2022-09-01T04:59:09;98593.06;;;19.69;100.00
53270;BME280;39159;45.634;9.420;2022-09-01T05:01:35;98584.84;;;19.76;100.00
53270;BME280;39159;45.634;9.420;2022-09-01T05:04:07;98590.38;;;19.76;100.00
53270;BME280;39159;45.634;9.420;2022-09-01T05:06:33;98597.53;;;19.77;100.00
53270;BME280;39159;45.634;9.420;2022-09-01T05:08:58;98591.56;;;19.75;100.00
53270;BME280;39159;45.634;9.420;2022-09-01T05:11:24;98594.34;;;19.75;100.00
53270;BME280;39159;45.634;9.420;2022-09-01T05:13:50;98602.28;;;19.80;100.00
53270;BME280;39159;45.634;9.420;2022-09-01T05:16:20;98598.38;;;19.85;100.00
53270;BME280;39159;45.634;9.420;2022-09-01T05:18:46;98607.13;;;19.87;100.00
53270;BME280;39159;45.634;9.420;2022-09-01T05:21:13;98599.16;;;19.82;100.00
53270;BME280;39159;45.634;9.420;2022-09-01T05:23:40;98606.25;;;19.79;100.00
53270;BME280;39159;45.634;9.420;2022-09-01T05:26:11;98604.28;;;19.80;100.00
53270;BME280;39159;45.634;9.420;2022-09-01T05:28:44;98599.91;;;19.79;100.00
53270;BME280;39159;45.634;9.420;2022-09-01T05:31:10;98607.41;;;19.78;100.00
53270;BME280;39159;45.634;9.420;2022-09-01T05:33:36;98603.09;;;19.81;100.00
53270;BME280;39159;45.634;9.420;2022-09-01T05:36:03;98611.38;;;19.81;100.00
53270;BME280;39159;45.634;9.420;2022-09-01T05:38:32;98604.69;;;19.82;100.00
53270;BME280;39159;45.634;9.420;2022-09-01T05:41:01;98610.22;;;19.82;100.00
53270;BME280;39159;45.634;9.420;2022-09-01T05:43:28;98609.88;;;19.83;100.00
53270;BME280;39159;45.634;9.420;2022-09-01T05:45:54;98611.81;;;19.83;100.00
53270;BME280;39159;45.634;9.420;2022-09-01T05:48:20;98620.13;;;19.83;100.00
53270;BME280;39159;45.634;9.420;2022-09-01T05:50:47;98611.44;;;19.84;100.00
53270;BME280;39159;45.634;9.420;2022-09-01T05:53:13;98621.38;;;19.89;100.00
53270;BME280;39159;45.634;9.420;2022-09-01T05:55:44;98619.09;;;19.95;100.00
53270;BME280;39159;45.634;9.420;2022-09-01T05:58:11;98624.75;;;20.09;100.00
53270;BME280;39159;45.634;9.420;2022-09-01T06:00:42;98629.16;;;20.10;100.00
53270;BME280;39159;45.634;9.420;2022-09-01T06:03:08;98626.06;;;20.19;100.00
53270;BME280;39159;45.634;9.420;2022-09-01T06:05:34;98625.78;;;20.31;100.00
53270;BME280;39159;45.634;9.420;2022-09-01T06:08:01;98630.59;;;20.38;100.00
53270;BME280;39159;45.634;9.420;2022-09-01T06:10:26;98637.81;;;20.46;100.00
53270;BME280;39159;45.634;9.420;2022-09-01T06:12:52;98641.06;;;20.55;100.00
53270;BME280;39159;45.634;9.420;2022-09-01T06:15:17;98647.06;;;20.61;100.00
53270;BME280;39159;45.634;9.420;2022-09-01T06:17:44;98646.31;;;20.67;100.00
53270;BME280;39159;45.634;9.420;2022-09-01T06:20:11;98649.59;;;20.77;100.00
53270;BME280;39159;45.634;9.420;2022-09-01T06:22:36;98646.13;;;20.90;100.00
53270;BME280;39159;45.634;9.420;2022-09-01T06:25:02;98649.41;;;21.03;100.00
53270;BME280;39159;45.634;9.420;2022-09-01T06:27:31;98650.22;;;21.07;100.00
53270;BME280;39159;45.634;9.420;2022-09-01T06:29:56;98658.09;;;21.02;100.00
53270;BME280;39159;45.634;9.420;2022-09-01T06:32:22;98658.47;;;20.97;100.00
53270;BME280;39159;45.634;9.420;2022-09-01T06:34:49;98659.25;;;20.97;100.00
53270;BME280;39159;45.634;9.420;2022-09-01T06:37:15;98660.81;;;20.91;100.00
53270;BME280;39159;45.634;9.420;2022-09-01T06:39:41;98659.63;;;20.96;100.00
53270;BME280;39159;45.634;9.420;2022-09-01T06:42:07;98651.69;;;20.94;100.00
53270;BME280;39159;45.634;9.420;2022-09-01T06:44:35;98662.03;;;20.97;100.00
53270;BME280;39159;45.634;9.420;2022-09-01T06:47:00;98654.03;;;20.88;100.00
53270;BME280;39159;45.634;9.420;2022-09-01T06:49:26;98654.00;;;20.81;100.00
53270;BME280;39159;45.634;9.420;2022-09-01T06:52:00;98657.88;;;20.73;100.00
53270;BME280;39159;45.634;9.420;2022-09-01T06:54:27;98662.63;;;20.73;100.00
53270;BME280;39159;45.634;9.420;2022-09-01T06:56:54;98669.75;;;20.74;100.00
53270;BME280;39159;45.634;9.420;2022-09-01T06:59:20;98665.00;;;20.70;100.00
53270;BME280;39159;45.634;9.420;2022-09-01T07:01:45;98667.41;;;20.72;100.00
53270;BME280;39159;45.634;9.420;2022-09-01T07:04:12;98674.91;;;20.72;100.00
53270;BME280;39159;45.634;9.420;2022-09-01T07:06:40;98667.75;;;20.70;100.00
53270;BME280;39159;45.634;9.420;2022-09-01T07:09:06;98668.19;;;20.73;100.00
53270;BME280;39159;45.634;9.420;2022-09-01T07:11:31;98662.63;;;20.73;100.00
53270;BME280;39159;45.634;9.420;2022-09-01T07:13:59;98676.47;;;20.69;100.00
53270;BME280;39159;45.634;9.420;2022-09-01T07:16:26;98678.06;;;20.70;100.00
53270;BME280;39159;45.634;9.420;2022-09-01T07:18:53;98676.47;;;20.69;100.00
53270;BME280;39159;45.634;9.420;2022-09-01T07:21:21;98684.41;;;20.74;100.00
53270;BME280;39159;45.634;9.420;2022-09-01T07:23:47;98688.91;;;20.86;100.00
53270;BME280;39159;45.634;9.420;2022-09-01T07:26:12;98692.09;;;20.91;100.00
53270;BME280;39159;45.634;9.420;2022-09-01T07:28:42;98698.56;;;21.06;100.00
53270;BME280;39159;45.634;9.420;2022-09-01T07:31:08;98704.34;;;21.35;100.00
53270;BME280;39159;45.634;9.420;2022-09-01T07:33:33;98704.50;;;21.57;100.00
53270;BME280;39159;45.634;9.420;2022-09-01T07:35:58;98700.31;;;21.95;100.00
53270;BME280;39159;45.634;9.420;2022-09-01T07:38:24;98706.06;;;22.38;97.69
53270;BME280;39159;45.634;9.420;2022-09-01T07:40:49;98702.13;;;22.53;95.13
53270;BME280;39159;45.634;9.420;2022-09-01T07:43:25;98708.50;;;22.58;94.25
53270;BME280;39159;45.634;9.420;2022-09-01T07:45:53;98712.91;;;22.84;92.50
53270;BME280;39159;45.634;9.420;2022-09-01T07:48:25;98699.78;;;22.98;91.07
53270;BME280;39159;45.634;9.420;2022-09-01T07:50:52;98695.84;;;23.07;90.48
53270;BME280;39159;45.634;9.420;2022-09-01T07:53:22;98699.41;;;23.32;88.61
53270;BME280;39159;45.634;9.420;2022-09-01T07:55:52;98698.56;;;23.53;86.11
53270;BME280;39159;45.634;9.420;2022-09-01T07:58:19;98703.28;;;23.82;82.62
53270;BME280;39159;45.634;9.420;2022-09-01T08:00:45;98705.59;;;24.01;81.52
53270;BME280;39159;45.634;9.420;2022-09-01T08:03:12;98700.34;;;24.17;81.23
53270;BME280;39159;45.634;9.420;2022-09-01T08:05:37;98709.06;;;24.27;78.07
53270;BME280;39159;45.634;9.420;2022-09-01T08:08:03;98708.97;;;24.45;76.77
53270;BME280;39159;45.634;9.420;2022-09-01T08:10:29;98713.88;;;24.26;79.73
53270;BME280;39159;45.634;9.420;2022-09-01T08:12:54;98718.34;;;23.98;79.81
53270;BME280;39159;45.634;9.420;2022-09-01T08:15:20;98727.56;;;23.88;78.24
53270;BME280;39159;45.634;9.420;2022-09-01T08:17:45;98711.66;;;23.71;78.40
53270;BME280;39159;45.634;9.420;2022-09-01T08:20:11;98721.63;;;23.65;77.27
53270;BME280;39159;45.634;9.420;2022-09-01T08:22:36;98718.44;;;23.59;76.95
53270;BME280;39159;45.634;9.420;2022-09-01T08:25:04;98724.00;;;23.63;77.22
53270;BME280;39159;45.634;9.420;2022-09-01T08:27:30;98720.84;;;23.53;77.77
53270;BME280;39159;45.634;9.420;2022-09-01T08:29:55;98727.19;;;23.54;77.06
53270;BME280;39159;45.634;9.420;2022-09-01T08:32:21;98726.38;;;23.61;77.02
53270;BME280;39159;45.634;9.420;2022-09-01T08:34:46;98732.28;;;23.98;75.51
53270;BME280;39159;45.634;9.420;2022-09-01T08:37:11;98728.28;;;24.03;74.50
53270;BME280;39159;45.634;9.420;2022-09-01T08:39:37;98730.63;;;24.12;73.60
53270;BME280;39159;45.634;9.420;2022-09-01T08:44:58;98731.00;;;24.25;73.31
53270;BME280;39159;45.634;9.420;2022-09-01T08:47:27;98730.63;;;24.89;71.90
53270;BME280;39159;45.634;9.420;2022-09-01T08:49:52;98733.81;;;25.43;68.25
53270;BME280;39159;45.634;9.420;2022-09-01T08:54:50;98736.06;;;25.11;67.15
53270;BME280;39159;45.634;9.420;2022-09-01T08:57:50;98734.03;;;25.15;67.83
53270;BME280;39159;45.634;9.420;2022-09-01T09:00:10;98729.88;;;24.85;69.84
53270;BME280;39159;45.634;9.420;2022-09-01T09:05:07;98734.22;;;25.42;68.15
53270;BME280;39159;45.634;9.420;2022-09-01T09:07:36;98722.31;;;25.76;66.59
53270;BME280;39159;45.634;9.420;2022-09-01T09:10:10;98722.97;;;25.91;65.72
53270;BME280;39159;45.634;9.420;2022-09-01T09:17:56;98729.59;;;26.04;66.37
53270;BME280;39159;45.634;9.420;2022-09-01T09:20:24;98732.22;;;25.84;65.94
53270;BME280;39159;45.634;9.420;2022-09-01T09:22:49;98733.66;;;25.13;67.57
53270;BME280;39159;45.634;9.420;2022-09-01T09:25:16;98732.41;;;25.21;67.49
53270;BME280;39159;45.634;9.420;2022-09-01T09:27:43;98735.97;;;25.25;67.58
53270;BME280;39159;45.634;9.420;2022-09-01T09:32:45;98731.41;;;25.83;67.78
53270;BME280;39159;45.634;9.420;2022-09-01T09:35:21;98729.53;;;26.11;65.89
53270;BME280;39159;45.634;9.420;2022-09-01T09:37:47;98729.38;;;26.22;66.17
53270;BME280;39159;45.634;9.420;2022-09-01T09:40:14;98724.34;;;26.10;64.51
53270;BME280;39159;45.634;9.420;2022-09-01T09:42:41;98722.41;;;26.03;65.56
53270;BME280;39159;45.634;9.420;2022-09-01T09:45:19;98721.28;;;25.59;67.32
53270;BME280;39159;45.634;9.420;2022-09-01T09:47:45;98721.09;;;26.15;65.15
53270;BME280;39159;45.634;9.420;2022-09-01T09:52:39;98720.13;;;26.59;64.98
53270;BME280;39159;45.634;9.420;2022-09-01T09:55:06;98712.25;;;26.78;61.56
53270;BME280;39159;45.634;9.420;2022-09-01T09:57:42;98706.19;;;26.52;61.01
53270;BME280;39159;45.634;9.420;2022-09-01T10:00:28;98716.94;;;26.57;62.93
53270;BME280;39159;45.634;9.420;2022-09-01T10:03:01;98711.13;;;26.72;63.63
53270;BME280;39159;45.634;9.420;2022-09-01T10:10:50;98706.03;;;26.36;63.08
53270;BME280;39159;45.634;9.420;2022-09-01T10:13:23;98703.75;;;26.54;63.17
53270;BME280;39159;45.634;9.420;2022-09-01T10:15:52;98707.81;;;26.50;62.85
53270;BME280;39159;45.634;9.420;2022-09-01T10:18:20;98697.28;;;26.30;64.78
53270;BME280;39159;45.634;9.420;2022-09-01T10:20:56;98700.66;;;26.49;63.38
53270;BME280;39159;45.634;9.420;2022-09-01T10:23:22;98701.47;;;26.45;61.37
53270;BME280;39159;45.634;9.420;2022-09-01T10:25:49;98701.09;;;26.43;61.93
53270;BME280;39159;45.634;9.420;2022-09-01T10:28:17;98697.72;;;26.59;60.91
53270;BME280;39159;45.634;9.420;2022-09-01T10:30:44;98693.44;;;26.78;59.88
53270;BME280;39159;45.634;9.420;2022-09-01T10:33:18;98694.94;;;26.59;61.72
53270;BME280;39159;45.634;9.420;2022-09-01T10:35:45;98688.97;;;25.96;63.21
53270;BME280;39159;45.634;9.420;2022-09-01T10:40:44;98684.94;;;25.21;66.00
53270;BME280;39159;45.634;9.420;2022-09-01T10:43:21;98684.13;;;25.24;67.22
53270;BME280;39159;45.634;9.420;2022-09-01T10:45:47;98693.34;;;25.59;66.31
53270;BME280;39159;45.634;9.420;2022-09-01T10:50:44;98694.25;;;25.83;65.71
53270;BME280;39159;45.634;9.420;2022-09-01T10:53:26;98698.09;;;25.62;66.13
53270;BME280;39159;45.634;9.420;2022-09-01T10:56:10;98703.13;;;25.40;66.78
53270;BME280;39159;45.634;9.420;2022-09-01T10:58:44;98705.69;;;25.20;67.62
53270;BME280;39159;45.634;9.420;2022-09-01T11:01:14;98708.13;;;25.59;67.11
53270;BME280;39159;45.634;9.420;2022-09-01T11:06:08;98695.69;;;26.33;65.47
53270;BME280;39159;45.634;9.420;2022-09-01T11:13:46;98700.50;;;27.10;62.84
53270;BME280;39159;45.634;9.420;2022-09-01T11:16:30;98691.19;;;27.17;61.47
53270;BME280;39159;45.634;9.420;2022-09-01T11:19:14;98695.41;;;27.05;62.11
53270;BME280;39159;45.634;9.420;2022-09-01T11:21:41;98693.00;;;26.80;63.68
53270;BME280;39159;45.634;9.420;2022-09-01T11:26:51;98691.00;;;26.22;66.56
53270;BME280;39159;45.634;9.420;2022-09-01T11:31:59;98686.16;;;26.26;65.37
53270;BME280;39159;45.634;9.420;2022-09-01T11:34:26;98686.91;;;26.31;64.96
53270;BME280;39159;45.634;9.420;2022-09-01T11:36:56;98688.06;;;26.33;65.32
53270;BME280;39159;45.634;9.420;2022-09-01T11:44:39;98680.25;;;27.02;60.34
53270;BME280;39159;45.634;9.420;2022-09-01T11:47:13;98686.66;;;27.26;59.56
53270;BME280;39159;45.634;9.420;2022-09-01T11:49:49;98683.91;;;27.23;59.19
53270;BME280;39159;45.634;9.420;2022-09-01T11:52:17;98678.31;;;27.23;58.83
53270;BME280;39159;45.634;9.420;2022-09-01T11:54:44;98683.88;;;27.26;60.06
53270;BME280;39159;45.634;9.420;2022-09-01T11:57:30;98678.53;;;26.85;60.51
53270;BME280;39159;45.634;9.420;2022-09-01T11:59:59;98680.19;;;26.55;60.13
53270;BME280;39159;45.634;9.420;2022-09-01T12:02:30;98670.50;;;26.87;58.60
53270;BME280;39159;45.634;9.420;2022-09-01T12:04:58;98683.28;;;26.61;60.11
53270;BME280;39159;45.634;9.420;2022-09-01T12:10:03;98671.25;;;26.06;60.67
53270;BME280;39159;45.634;9.420;2022-09-01T12:12:38;98663.25;;;26.66;60.40
53270;BME280;39159;45.634;9.420;2022-09-01T12:15:19;98668.88;;;26.62;57.52
53270;BME280;39159;45.634;9.420;2022-09-01T12:17:46;98674.47;;;26.35;58.80
53270;BME280;39159;45.634;9.420;2022-09-01T12:22:52;98661.84;;;26.23;59.06
53270;BME280;39159;45.634;9.420;2022-09-01T12:25:31;98651.97;;;26.70;59.39
53270;BME280;39159;45.634;9.420;2022-09-01T12:28:01;98654.44;;;26.91;60.16
53270;BME280;39159;45.634;9.420;2022-09-01T12:30:28;98651.53;;;27.22;59.20
53270;BME280;39159;45.634;9.420;2022-09-01T12:32:54;98654.69;;;27.24;58.08
53270;BME280;39159;45.634;9.420;2022-09-01T12:35:25;98658.84;;;27.59;56.64
53270;BME280;39159;45.634;9.420;2022-09-01T12:37:52;98648.69;;;27.65;55.85
53270;BME280;39159;45.634;9.420;2022-09-01T12:40:37;98642.41;;;27.14;57.87
53270;BME280;39159;45.634;9.420;2022-09-01T12:43:02;98644.91;;;27.76;56.91
53270;BME280;39159;45.634;9.420;2022-09-01T12:45:45;98640.00;;;27.40;55.91
53270;BME280;39159;45.634;9.420;2022-09-01T12:50:54;98645.09;;;26.74;58.38
53270;BME280;39159;45.634;9.420;2022-09-01T12:53:22;98643.97;;;26.95;56.90
53270;BME280;39159;45.634;9.420;2022-09-01T12:56:04;98645.66;;;27.13;57.54
53270;BME280;39159;45.634;9.420;2022-09-01T12:58:30;98644.53;;;27.54;56.36
53270;BME280;39159;45.634;9.420;2022-09-01T13:03:24;98647.84;;;28.08;52.90
53270;BME280;39159;45.634;9.420;2022-09-01T13:05:59;98647.34;;;27.94;51.17
53270;BME280;39159;45.634;9.420;2022-09-01T13:08:30;98646.75;;;27.82;52.92
53270;BME280;39159;45.634;9.420;2022-09-01T13:11:13;98645.06;;;27.88;50.84
53270;BME280;39159;45.634;9.420;2022-09-01T13:13:40;98636.72;;;27.85;51.23
53270;BME280;39159;45.634;9.420;2022-09-01T13:16:05;98639.34;;;27.72;52.06
53270;BME280;39159;45.634;9.420;2022-09-01T13:18:41;98638.78;;;27.61;52.30
53270;BME280;39159;45.634;9.420;2022-09-01T13:21:07;98633.53;;;27.83;51.27
53270;BME280;39159;45.634;9.420;2022-09-01T13:23:32;98636.28;;;27.66;51.48
53270;BME280;39159;45.634;9.420;2022-09-01T13:25:58;98642.66;;;27.67;50.87
53270;BME280;39159;45.634;9.420;2022-09-01T13:28:25;98634.03;;;27.78;51.18
53270;BME280;39159;45.634;9.420;2022-09-01T13:30:59;98637.22;;;27.60;50.68
53270;BME280;39159;45.634;9.420;2022-09-01T13:33:26;98634.81;;;27.38;51.82
53270;BME280;39159;45.634;9.420;2022-09-01T13:35:52;98627.31;;;27.32;51.32
53270;BME280;39159;45.634;9.420;2022-09-01T13:38:18;98629.28;;;27.11;52.14
53270;BME280;39159;45.634;9.420;2022-09-01T13:40:44;98623.88;;;27.00;52.21
53270;BME280;39159;45.634;9.420;2022-09-01T13:43:15;98615.91;;;26.75;52.38
53270;BME280;39159;45.634;9.420;2022-09-01T13:45:41;98616.19;;;26.81;51.55
53270;BME280;39159;45.634;9.420;2022-09-01T13:48:07;98619.31;;;26.86;52.33
53270;BME280;39159;45.634;9.420;2022-09-01T13:50:34;98612.16;;;27.05;52.68
53270;BME280;39159;45.634;9.420;2022-09-01T13:53:00;98620.69;;;26.98;51.87
53270;BME280;39159;45.634;9.420;2022-09-01T13:55:30;98620.28;;;26.76;52.20
53270;BME280;39159;45.634;9.420;2022-09-01T13:57:57;98622.47;;;26.88;51.35
53270;BME280;39159;45.634;9.420;2022-09-01T14:00:26;98615.69;;;27.09;49.85